Terminal Aerodrome Forecast
Issued by NWS

Home | Current Version | Previous Version | Text Only | Print | Product List | Glossary On
Versions: 1 2 3 4 5 6 7 8 9 10 11 12 13 14 15
000
FTUS46 KPDT 021138
TAFDLS
TAF
KDLS 021138Z 0212/0312 29011KT P6SM BKN070
     FM021600 31016G24KT P6SM SCT050 BKN090
     FM022100 31018G28KT P6SM VCSH SCT060 BKN100
     FM030300 30013KT P6SM FEW040 BKN100=

USA.gov is the U.S. government's official web portal to all federal, state and local government web resources and services.